sensor_id;sensor_type;location;lat;lon;timestamp;temperature;humidity
21335;DHT22;10826;52.536;13.432;2023-04-03T00:00:30;3.40;50.90
21335;DHT22;10826;52.536;13.432;2023-04-03T00:03:17;3.40;50.80
21335;DHT22;10826;52.536;13.432;2023-04-03T00:06:04;3.30;50.80
21335;DHT22;10826;52.536;13.432;2023-04-03T00:08:52;3.30;50.80
21335;DHT22;10826;52.536;13.432;2023-04-03T00:11:42;3.30;50.90
21335;DHT22;10826;52.536;13.432;2023-04-03T00:14:28;3.30;50.90
21335;DHT22;10826;52.536;13.432;2023-04-03T00:17:14;3.30;50.90
21335;DHT22;10826;52.536;13.432;2023-04-03T00:20:08;3.30;50.90
21335;DHT22;10826;52.536;13.432;2023-04-03T00:22:55;3.30;51.00
21335;DHT22;10826;52.536;13.432;2023-04-03T00:25:43;3.20;50.80
21335;DHT22;10826;52.536;13.432;2023-04-03T00:28:29;3.20;50.80
21335;DHT22;10826;52.536;13.432;2023-04-03T00:31:16;3.20;50.80
21335;DHT22;10826;52.536;13.432;2023-04-03T00:34:02;3.20;50.80
21335;DHT22;10826;52.536;13.432;2023-04-03T00:36:48;3.20;50.80
21335;DHT22;10826;52.536;13.432;2023-04-03T00:39:34;3.20;50.80
21335;DHT22;10826;52.536;13.432;2023-04-03T00:42:20;3.10;50.80
21335;DHT22;10826;52.536;13.432;2023-04-03T00:48:05;3.10;50.90
21335;DHT22;10826;52.536;13.432;2023-04-03T00:50:53;3.10;51.00
21335;DHT22;10826;52.536;13.432;2023-04-03T00:53:46;3.00;50.90
21335;DHT22;10826;52.536;13.432;2023-04-03T00:56:35;3.00;51.70
21335;DHT22;10826;52.536;13.432;2023-04-03T00:59:26;2.90;51.00
21335;DHT22;10826;52.536;13.432;2023-04-03T01:02:15;3.00;51.10
21335;DHT22;10826;52.536;13.432;2023-04-03T01:05:02;3.00;51.10
21335;DHT22;10826;52.536;13.432;2023-04-03T01:07:51;2.90;51.20
21335;DHT22;10826;52.536;13.432;2023-04-03T01:10:38;2.90;51.30
21335;DHT22;10826;52.536;13.432;2023-04-03T01:13:31;2.80;51.20
21335;DHT22;10826;52.536;13.432;2023-04-03T01:16:25;2.80;51.30
21335;DHT22;10826;52.536;13.432;2023-04-03T01:19:15;2.80;52.00
21335;DHT22;10826;52.536;13.432;2023-04-03T01:22:17;2.70;51.40
21335;DHT22;10826;52.536;13.432;2023-04-03T01:25:11;2.70;51.50
21335;DHT22;10826;52.536;13.432;2023-04-03T01:27:57;2.70;51.70
21335;DHT22;10826;52.536;13.432;2023-04-03T01:34:12;2.60;51.70
21335;DHT22;10826;52.536;13.432;2023-04-03T01:36:58;2.60;51.80
21335;DHT22;10826;52.536;13.432;2023-04-03T01:39:44;2.50;52.00
21335;DHT22;10826;52.536;13.432;2023-04-03T01:42:30;2.50;52.00
21335;DHT22;10826;52.536;13.432;2023-04-03T01:45:16;2.50;52.00
21335;DHT22;10826;52.536;13.432;2023-04-03T01:48:03;2.50;52.20
21335;DHT22;10826;52.536;13.432;2023-04-03T01:50:50;2.40;52.10
21335;DHT22;10826;52.536;13.432;2023-04-03T01:53:37;2.40;52.20
21335;DHT22;10826;52.536;13.432;2023-04-03T01:56:23;2.40;52.20
21335;DHT22;10826;52.536;13.432;2023-04-03T01:59:09;2.30;52.30
21335;DHT22;10826;52.536;13.432;2023-04-03T02:01:56;2.30;52.30
21335;DHT22;10826;52.536;13.432;2023-04-03T02:04:41;2.30;52.40
21335;DHT22;10826;52.536;13.432;2023-04-03T02:07:27;2.30;52.50
21335;DHT22;10826;52.536;13.432;2023-04-03T02:10:25;2.20;52.40
21335;DHT22;10826;52.536;13.432;2023-04-03T02:13:11;2.30;52.60
21335;DHT22;10826;52.536;13.432;2023-04-03T02:15:56;2.20;52.50
21335;DHT22;10826;52.536;13.432;2023-04-03T02:18:42;2.20;52.50
21335;DHT22;10826;52.536;13.432;2023-04-03T02:21:28;2.10;52.60
21335;DHT22;10826;52.536;13.432;2023-04-03T02:24:14;2.10;52.70
21335;DHT22;10826;52.536;13.432;2023-04-03T02:27:00;2.10;52.70
21335;DHT22;10826;52.536;13.432;2023-04-03T02:29:46;2.10;52.90
21335;DHT22;10826;52.536;13.432;2023-04-03T02:32:32;2.10;52.90
21335;DHT22;10826;52.536;13.432;2023-04-03T02:35:18;2.10;53.30
21335;DHT22;10826;52.536;13.432;2023-04-03T02:38:04;2.10;53.30
21335;DHT22;10826;52.536;13.432;2023-04-03T02:41:00;2.10;53.30
21335;DHT22;10826;52.536;13.432;2023-04-03T02:43:47;2.00;53.20
21335;DHT22;10826;52.536;13.432;2023-04-03T02:46:34;2.10;53.40
21335;DHT22;10826;52.536;13.432;2023-04-03T02:49:20;2.10;53.50
21335;DHT22;10826;52.536;13.432;2023-04-03T02:52:06;2.10;53.60
21335;DHT22;10826;52.536;13.432;2023-04-03T02:54:52;2.00;53.50
21335;DHT22;10826;52.536;13.432;2023-04-03T02:57:38;2.00;53.50
21335;DHT22;10826;52.536;13.432;2023-04-03T03:00:25;2.00;53.60
21335;DHT22;10826;52.536;13.432;2023-04-03T03:03:11;2.00;53.60
21335;DHT22;10826;52.536;13.432;2023-04-03T03:06:06;2.00;53.60
21335;DHT22;10826;52.536;13.432;2023-04-03T03:08:58;2.00;53.50
21335;DHT22;10826;52.536;13.432;2023-04-03T03:11:44;2.00;54.30
21335;DHT22;10826;52.536;13.432;2023-04-03T03:14:30;2.00;54.30
21335;DHT22;10826;52.536;13.432;2023-04-03T03:17:16;2.00;53.60
21335;DHT22;10826;52.536;13.432;2023-04-03T03:20:04;2.00;53.70
21335;DHT22;10826;52.536;13.432;2023-04-03T03:22:50;1.90;53.70
21335;DHT22;10826;52.536;13.432;2023-04-03T03:25:40;2.00;53.70
21335;DHT22;10826;52.536;13.432;2023-04-03T03:28:26;1.90;53.60
21335;DHT22;10826;52.536;13.432;2023-04-03T03:31:12;1.90;53.70
21335;DHT22;10826;52.536;13.432;2023-04-03T03:33:59;1.90;53.70
21335;DHT22;10826;52.536;13.432;2023-04-03T03:36:49;1.90;53.70
21335;DHT22;10826;52.536;13.432;2023-04-03T03:39:35;1.90;53.80
21335;DHT22;10826;52.536;13.432;2023-04-03T03:42:21;1.90;53.90
21335;DHT22;10826;52.536;13.432;2023-04-03T03:45:08;1.90;53.80
21335;DHT22;10826;52.536;13.432;2023-04-03T03:47:55;1.90;53.80
21335;DHT22;10826;52.536;13.432;2023-04-03T03:50:41;1.90;53.90
21335;DHT22;10826;52.536;13.432;2023-04-03T03:53:27;1.90;53.90
21335;DHT22;10826;52.536;13.432;2023-04-03T03:56:15;1.90;54.00
21335;DHT22;10826;52.536;13.432;2023-04-03T03:59:01;1.90;54.10
21335;DHT22;10826;52.536;13.432;2023-04-03T04:01:47;1.90;54.20
21335;DHT22;10826;52.536;13.432;2023-04-03T04:04:33;1.90;54.20
21335;DHT22;10826;52.536;13.432;2023-04-03T04:07:18;1.90;54.20
21335;DHT22;10826;52.536;13.432;2023-04-03T04:10:06;1.90;54.30
21335;DHT22;10826;52.536;13.432;2023-04-03T04:12:52;1.90;54.30
21335;DHT22;10826;52.536;13.432;2023-04-03T04:15:39;2.00;54.40
21335;DHT22;10826;52.536;13.432;2023-04-03T04:18:25;2.00;54.30
21335;DHT22;10826;52.536;13.432;2023-04-03T04:21:11;2.00;54.40
21335;DHT22;10826;52.536;13.432;2023-04-03T04:23:57;2.00;54.40
21335;DHT22;10826;52.536;13.432;2023-04-03T04:26:43;2.00;54.40
21335;DHT22;10826;52.536;13.432;2023-04-03T04:29:29;2.00;54.40
21335;DHT22;10826;52.536;13.432;2023-04-03T04:32:23;2.00;54.40
21335;DHT22;10826;52.536;13.432;2023-04-03T04:35:09;2.00;54.50
21335;DHT22;10826;52.536;13.432;2023-04-03T04:37:55;2.00;54.40
21335;DHT22;10826;52.536;13.432;2023-04-03T04:40:41;2.00;54.40
21335;DHT22;10826;52.536;13.432;2023-04-03T04:43:28;2.00;54.40
21335;DHT22;10826;52.536;13.432;2023-04-03T04:46:14;2.00;54.40
21335;DHT22;10826;52.536;13.432;2023-04-03T04:49:01;2.10;54.70
21335;DHT22;10826;52.536;13.432;2023-04-03T04:51:57;2.10;54.80
21335;DHT22;10826;52.536;13.432;2023-04-03T04:54:44;2.00;54.70
21335;DHT22;10826;52.536;13.432;2023-04-03T04:57:30;2.10;54.90
21335;DHT22;10826;52.536;13.432;2023-04-03T05:00:17;2.10;54.90
21335;DHT22;10826;52.536;13.432;2023-04-03T05:03:04;2.10;54.90
21335;DHT22;10826;52.536;13.432;2023-04-03T05:05:50;2.10;54.80
21335;DHT22;10826;52.536;13.432;2023-04-03T05:08:36;2.10;54.70
21335;DHT22;10826;52.536;13.432;2023-04-03T05:11:22;2.20;54.70
21335;DHT22;10826;52.536;13.432;2023-04-03T05:14:08;2.20;54.60
21335;DHT22;10826;52.536;13.432;2023-04-03T05:16:57;2.20;54.60
21335;DHT22;10826;52.536;13.432;2023-04-03T05:19:43;2.30;54.60
21335;DHT22;10826;52.536;13.432;2023-04-03T05:22:30;2.30;54.60
21335;DHT22;10826;52.536;13.432;2023-04-03T05:25:19;2.30;54.60
21335;DHT22;10826;52.536;13.432;2023-04-03T05:28:06;2.30;54.70
21335;DHT22;10826;52.536;13.432;2023-04-03T05:30:53;2.40;54.70
21335;DHT22;10826;52.536;13.432;2023-04-03T05:33:44;2.40;54.70
21335;DHT22;10826;52.536;13.432;2023-04-03T05:36:31;2.40;54.80
21335;DHT22;10826;52.536;13.432;2023-04-03T05:39:23;2.50;54.90
21335;DHT22;10826;52.536;13.432;2023-04-03T05:42:09;2.50;54.80
21335;DHT22;10826;52.536;13.432;2023-04-03T05:44:58;2.60;54.80
21335;DHT22;10826;52.536;13.432;2023-04-03T05:47:45;2.70;54.80
21335;DHT22;10826;52.536;13.432;2023-04-03T05:50:32;2.80;54.80
21335;DHT22;10826;52.536;13.432;2023-04-03T05:53:23;2.90;54.70
21335;DHT22;10826;52.536;13.432;2023-04-03T05:56:15;3.00;54.60
21335;DHT22;10826;52.536;13.432;2023-04-03T05:59:01;3.10;54.40
21335;DHT22;10826;52.536;13.432;2023-04-03T06:01:48;3.20;54.30
21335;DHT22;10826;52.536;13.432;2023-04-03T06:04:35;3.40;54.10
21335;DHT22;10826;52.536;13.432;2023-04-03T06:07:23;3.50;54.00
21335;DHT22;10826;52.536;13.432;2023-04-03T06:10:13;3.60;53.70
21335;DHT22;10826;52.536;13.432;2023-04-03T06:12:59;3.70;53.60
21335;DHT22;10826;52.536;13.432;2023-04-03T06:15:47;3.90;53.60
21335;DHT22;10826;52.536;13.432;2023-04-03T06:18:34;4.30;53.40
21335;DHT22;10826;52.536;13.432;2023-04-03T06:21:20;5.10;52.70
21335;DHT22;10826;52.536;13.432;2023-04-03T06:24:07;6.20;50.30
21335;DHT22;10826;52.536;13.432;2023-04-03T06:26:53;7.30;49.70
21335;DHT22;10826;52.536;13.432;2023-04-03T06:29:39;8.60;46.50
21335;DHT22;10826;52.536;13.432;2023-04-03T06:32:25;9.80;41.80
21335;DHT22;10826;52.536;13.432;2023-04-03T06:35:12;10.80;40.50
21335;DHT22;10826;52.536;13.432;2023-04-03T06:37:58;11.90;38.60
21335;DHT22;10826;52.536;13.432;2023-04-03T06:40:43;12.90;36.90
21335;DHT22;10826;52.536;13.432;2023-04-03T06:43:30;13.70;34.40
21335;DHT22;10826;52.536;13.432;2023-04-03T06:46:21;14.30;32.30
21335;DHT22;10826;52.536;13.432;2023-04-03T06:49:08;14.80;30.80
21335;DHT22;10826;52.536;13.432;2023-04-03T06:51:55;15.00;30.00
21335;DHT22;10826;52.536;13.432;2023-04-03T06:54:41;15.30;30.10
21335;DHT22;10826;52.536;13.432;2023-04-03T06:57:27;15.70;29.40
21335;DHT22;10826;52.536;13.432;2023-04-03T07:00:14;16.00;28.30
21335;DHT22;10826;52.536;13.432;2023-04-03T07:03:01;16.00;27.00
21335;DHT22;10826;52.536;13.432;2023-04-03T07:05:49;15.40;26.30
21335;DHT22;10826;52.536;13.432;2023-04-03T07:08:35;14.60;26.50
21335;DHT22;10826;52.536;13.432;2023-04-03T07:11:21;13.80;27.70
21335;DHT22;10826;52.536;13.432;2023-04-03T07:14:08;13.00;29.00
21335;DHT22;10826;52.536;13.432;2023-04-03T07:16:54;12.40;29.50
21335;DHT22;10826;52.536;13.432;2023-04-03T07:19:40;12.10;30.20
21335;DHT22;10826;52.536;13.432;2023-04-03T07:22:26;11.60;30.50
21335;DHT22;10826;52.536;13.432;2023-04-03T07:25:12;11.30;32.20
21335;DHT22;10826;52.536;13.432;2023-04-03T07:27:58;11.20;33.10
21335;DHT22;10826;52.536;13.432;2023-04-03T07:30:52;11.40;32.80
21335;DHT22;10826;52.536;13.432;2023-04-03T07:33:57;11.70;32.30
21335;DHT22;10826;52.536;13.432;2023-04-03T07:36:44;12.00;31.20
21335;DHT22;10826;52.536;13.432;2023-04-03T07:39:30;12.00;30.60
21335;DHT22;10826;52.536;13.432;2023-04-03T07:42:16;12.20;29.90
21335;DHT22;10826;52.536;13.432;2023-04-03T07:45:03;12.20;30.00
21335;DHT22;10826;52.536;13.432;2023-04-03T07:47:50;12.20;29.70
21335;DHT22;10826;52.536;13.432;2023-04-03T07:50:39;12.00;29.20
21335;DHT22;10826;52.536;13.432;2023-04-03T07:53:26;11.80;29.70
21335;DHT22;10826;52.536;13.432;2023-04-03T07:56:16;11.80;29.40
21335;DHT22;10826;52.536;13.432;2023-04-03T07:59:04;11.80;28.20
21335;DHT22;10826;52.536;13.432;2023-04-03T08:01:50;11.60;30.20
21335;DHT22;10826;52.536;13.432;2023-04-03T08:04:37;11.50;29.10
21335;DHT22;10826;52.536;13.432;2023-04-03T08:07:23;11.40;28.70
21335;DHT22;10826;52.536;13.432;2023-04-03T08:10:09;10.90;29.90
21335;DHT22;10826;52.536;13.432;2023-04-03T08:12:57;10.60;31.30
21335;DHT22;10826;52.536;13.432;2023-04-03T08:15:43;10.50;30.70
21335;DHT22;10826;52.536;13.432;2023-04-03T08:18:29;10.50;30.10
21335;DHT22;10826;52.536;13.432;2023-04-03T08:21:15;10.60;30.50
21335;DHT22;10826;52.536;13.432;2023-04-03T08:24:05;11.00;30.50
21335;DHT22;10826;52.536;13.432;2023-04-03T08:26:51;11.50;30.30
21335;DHT22;10826;52.536;13.432;2023-04-03T08:29:37;12.00;28.40
21335;DHT22;10826;52.536;13.432;2023-04-03T08:32:23;12.00;27.50
21335;DHT22;10826;52.536;13.432;2023-04-03T08:35:13;12.10;29.20
21335;DHT22;10826;52.536;13.432;2023-04-03T08:37:59;12.10;27.60
21335;DHT22;10826;52.536;13.432;2023-04-03T08:40:45;12.00;26.80
21335;DHT22;10826;52.536;13.432;2023-04-03T08:46:56;11.40;26.80
21335;DHT22;10826;52.536;13.432;2023-04-03T08:50:07;10.80;27.70
21335;DHT22;10826;52.536;13.432;2023-04-03T08:53:21;10.30;30.00
21335;DHT22;10826;52.536;13.432;2023-04-03T08:56:15;10.00;30.60
21335;DHT22;10826;52.536;13.432;2023-04-03T08:59:12;9.80;30.00
21335;DHT22;10826;52.536;13.432;2023-04-03T09:02:12;9.70;31.90
21335;DHT22;10826;52.536;13.432;2023-04-03T09:08:33;9.90;29.50
21335;DHT22;10826;52.536;13.432;2023-04-03T09:12:00;9.70;29.10
21335;DHT22;10826;52.536;13.432;2023-04-03T09:18:18;9.50;31.60
21335;DHT22;10826;52.536;13.432;2023-04-03T09:21:20;9.70;31.30
21335;DHT22;10826;52.536;13.432;2023-04-03T09:24:17;9.90;29.30
21335;DHT22;10826;52.536;13.432;2023-04-03T09:27:07;9.80;29.80
21335;DHT22;10826;52.536;13.432;2023-04-03T09:29:56;9.70;29.20
21335;DHT22;10826;52.536;13.432;2023-04-03T09:32:57;9.70;29.50
21335;DHT22;10826;52.536;13.432;2023-04-03T09:35:43;9.60;29.70
21335;DHT22;10826;52.536;13.432;2023-04-03T09:38:39;9.60;31.50
21335;DHT22;10826;52.536;13.432;2023-04-03T09:41:24;10.00;30.70
21335;DHT22;10826;52.536;13.432;2023-04-03T09:44:22;10.40;29.70
21335;DHT22;10826;52.536;13.432;2023-04-03T09:47:28;10.50;28.70
21335;DHT22;10826;52.536;13.432;2023-04-03T09:50:33;10.50;29.20
21335;DHT22;10826;52.536;13.432;2023-04-03T09:53:44;10.60;29.00
21335;DHT22;10826;52.536;13.432;2023-04-03T09:56:31;10.60;29.40
21335;DHT22;10826;52.536;13.432;2023-04-03T09:59:17;10.70;29.00
21335;DHT22;10826;52.536;13.432;2023-04-03T10:02:30;10.70;28.90
21335;DHT22;10826;52.536;13.432;2023-04-03T10:08:29;10.80;28.40
21335;DHT22;10826;52.536;13.432;2023-04-03T10:11:18;10.90;30.00
21335;DHT22;10826;52.536;13.432;2023-04-03T10:14:15;11.10;28.00
21335;DHT22;10826;52.536;13.432;2023-04-03T10:17:21;11.30;27.90
21335;DHT22;10826;52.536;13.432;2023-04-03T10:20:40;11.30;26.70
21335;DHT22;10826;52.536;13.432;2023-04-03T10:23:40;11.30;27.40
21335;DHT22;10826;52.536;13.432;2023-04-03T10:26:58;11.30;27.30
21335;DHT22;10826;52.536;13.432;2023-04-03T10:30:02;11.20;26.70
21335;DHT22;10826;52.536;13.432;2023-04-03T10:33:28;11.10;27.80
21335;DHT22;10826;52.536;13.432;2023-04-03T10:36:37;11.10;28.20
21335;DHT22;10826;52.536;13.432;2023-04-03T10:39:39;11.10;27.40
21335;DHT22;10826;52.536;13.432;2023-04-03T10:45:51;10.70;28.20
21335;DHT22;10826;52.536;13.432;2023-04-03T10:48:52;10.60;28.20
21335;DHT22;10826;52.536;13.432;2023-04-03T11:02:30;9.90;30.10
21335;DHT22;10826;52.536;13.432;2023-04-03T11:05:36;9.80;30.20
21335;DHT22;10826;52.536;13.432;2023-04-03T11:08:36;9.80;30.20
21335;DHT22;10826;52.536;13.432;2023-04-03T11:11:29;9.80;30.80
21335;DHT22;10826;52.536;13.432;2023-04-03T11:14:26;9.70;30.90
21335;DHT22;10826;52.536;13.432;2023-04-03T11:17:27;9.60;31.30
21335;DHT22;10826;52.536;13.432;2023-04-03T11:20:27;9.70;31.40
21335;DHT22;10826;52.536;13.432;2023-04-03T11:23:25;9.70;31.10
21335;DHT22;10826;52.536;13.432;2023-04-03T11:26:17;9.70;30.50
21335;DHT22;10826;52.536;13.432;2023-04-03T11:29:10;9.70;30.50
21335;DHT22;10826;52.536;13.432;2023-04-03T11:35:27;9.70;31.10
21335;DHT22;10826;52.536;13.432;2023-04-03T11:38:35;9.70;32.40
21335;DHT22;10826;52.536;13.432;2023-04-03T11:41:31;9.70;31.50
21335;DHT22;10826;52.536;13.432;2023-04-03T11:44:34;9.70;32.00
21335;DHT22;10826;52.536;13.432;2023-04-03T11:47:46;9.80;31.00
21335;DHT22;10826;52.536;13.432;2023-04-03T11:50:42;9.90;31.40
21335;DHT22;10826;52.536;13.432;2023-04-03T11:57:42;9.80;31.10
21335;DHT22;10826;52.536;13.432;2023-04-03T12:00:50;9.80;32.10
21335;DHT22;10826;52.536;13.432;2023-04-03T12:09:24;10.10;32.10
21335;DHT22;10826;52.536;13.432;2023-04-03T12:12:37;10.30;30.90
21335;DHT22;10826;52.536;13.432;2023-04-03T12:22:05;11.10;30.50
21335;DHT22;10826;52.536;13.432;2023-04-03T12:24:53;11.20;30.10
21335;DHT22;10826;52.536;13.432;2023-04-03T12:27:41;11.30;29.20
21335;DHT22;10826;52.536;13.432;2023-04-03T12:30:29;11.20;29.20
21335;DHT22;10826;52.536;13.432;2023-04-03T12:33:28;11.20;29.40
21335;DHT22;10826;52.536;13.432;2023-04-03T12:37:02;11.10;29.20
21335;DHT22;10826;52.536;13.432;2023-04-03T12:40:06;10.90;29.80
21335;DHT22;10826;52.536;13.432;2023-04-03T12:46:43;10.60;30.40
21335;DHT22;10826;52.536;13.432;2023-04-03T12:49:38;10.50;30.00
21335;DHT22;10826;52.536;13.432;2023-04-03T12:55:30;10.20;30.10
21335;DHT22;10826;52.536;13.432;2023-04-03T12:58:24;10.20;30.20
21335;DHT22;10826;52.536;13.432;2023-04-03T13:01:15;10.20;30.50
21335;DHT22;10826;52.536;13.432;2023-04-03T13:04:04;10.20;30.90
21335;DHT22;10826;52.536;13.432;2023-04-03T13:06:50;10.30;31.60
21335;DHT22;10826;52.536;13.432;2023-04-03T13:09:37;10.30;30.60
21335;DHT22;10826;52.536;13.432;2023-04-03T13:12:23;10.20;30.50
21335;DHT22;10826;52.536;13.432;2023-04-03T13:15:19;10.10;30.60
21335;DHT22;10826;52.536;13.432;2023-04-03T13:18:34;10.00;31.20
21335;DHT22;10826;52.536;13.432;2023-04-03T13:21:33;9.90;31.40
21335;DHT22;10826;52.536;13.432;2023-04-03T13:24:20;9.80;32.20
21335;DHT22;10826;52.536;13.432;2023-04-03T13:27:06;9.60;32.10
21335;DHT22;10826;52.536;13.432;2023-04-03T13:29:54;9.60;32.30
21335;DHT22;10826;52.536;13.432;2023-04-03T13:32:44;9.50;32.40
21335;DHT22;10826;52.536;13.432;2023-04-03T13:35:37;9.40;32.70
21335;DHT22;10826;52.536;13.432;2023-04-03T13:38:29;9.30;32.80
21335;DHT22;10826;52.536;13.432;2023-04-03T13:41:42;9.20;33.20
21335;DHT22;10826;52.536;13.432;2023-04-03T13:44:34;9.20;33.50
21335;DHT22;10826;52.536;13.432;2023-04-03T13:47:23;9.20;33.80
21335;DHT22;10826;52.536;13.432;2023-04-03T13:50:20;9.30;34.30
21335;DHT22;10826;52.536;13.432;2023-04-03T13:53:12;9.40;34.20
21335;DHT22;10826;52.536;13.432;2023-04-03T13:56:09;9.50;34.20
21335;DHT22;10826;52.536;13.432;2023-04-03T14:04:52;9.60;33.90
21335;DHT22;10826;52.536;13.432;2023-04-03T14:07:43;9.70;34.00
21335;DHT22;10826;52.536;13.432;2023-04-03T14:10:30;9.70;33.50
21335;DHT22;10826;52.536;13.432;2023-04-03T14:13:18;9.70;33.40
21335;DHT22;10826;52.536;13.432;2023-04-03T14:16:06;9.70;33.40
21335;DHT22;10826;52.536;13.432;2023-04-03T14:18:52;9.60;33.60
21335;DHT22;10826;52.536;13.432;2023-04-03T14:21:38;9.50;33.90
21335;DHT22;10826;52.536;13.432;2023-04-03T14:24:26;9.50;33.80
21335;DHT22;10826;52.536;13.432;2023-04-03T14:27:20;9.40;34.00
21335;DHT22;10826;52.536;13.432;2023-04-03T14:30:30;9.20;33.90
21335;DHT22;10826;52.536;13.432;2023-04-03T14:33:20;9.10;34.50
21335;DHT22;10826;52.536;13.432;2023-04-03T14:36:15;9.10;35.00
21335;DHT22;10826;52.536;13.432;2023-04-03T14:39:04;8.90;34.90
21335;DHT22;10826;52.536;13.432;2023-04-03T14:41:52;8.90;35.30
21335;DHT22;10826;52.536;13.432;2023-04-03T14:44:37;8.80;35.40
21335;DHT22;10826;52.536;13.432;2023-04-03T14:47:26;8.70;35.40
21335;DHT22;10826;52.536;13.432;2023-04-03T14:50:17;8.60;36.00
21335;DHT22;10826;52.536;13.432;2023-04-03T14:53:10;8.50;35.90
21335;DHT22;10826;52.536;13.432;2023-04-03T14:55:58;8.40;36.70
21335;DHT22;10826;52.536;13.432;2023-04-03T14:58:44;8.30;36.60
21335;DHT22;10826;52.536;13.432;2023-04-03T15:01:46;8.20;36.80
21335;DHT22;10826;52.536;13.432;2023-04-03T15:04:32;8.10;37.00
21335;DHT22;10826;52.536;13.432;2023-04-03T15:07:24;8.00;37.10
21335;DHT22;10826;52.536;13.432;2023-04-03T15:10:17;8.00;36.80
21335;DHT22;10826;52.536;13.432;2023-04-03T15:13:10;8.00;37.10
21335;DHT22;10826;52.536;13.432;2023-04-03T15:15:58;8.10;37.30
21335;DHT22;10826;52.536;13.432;2023-04-03T15:18:44;8.10;37.40
21335;DHT22;10826;52.536;13.432;2023-04-03T15:21:32;8.20;37.20
21335;DHT22;10826;52.536;13.432;2023-04-03T15:24:21;8.20;37.10
21335;DHT22;10826;52.536;13.432;2023-04-03T15:27:07;8.30;36.80
21335;DHT22;10826;52.536;13.432;2023-04-03T15:30:06;8.20;36.50
21335;DHT22;10826;52.536;13.432;2023-04-03T15:32:53;8.10;36.60
21335;DHT22;10826;52.536;13.432;2023-04-03T15:35:39;8.00;37.00
21335;DHT22;10826;52.536;13.432;2023-04-03T15:38:26;7.90;37.50
21335;DHT22;10826;52.536;13.432;2023-04-03T15:41:17;7.80;37.20
21335;DHT22;10826;52.536;13.432;2023-04-03T15:44:03;7.80;37.30
21335;DHT22;10826;52.536;13.432;2023-04-03T15:46:49;7.80;37.60
21335;DHT22;10826;52.536;13.432;2023-04-03T15:49:37;7.80;37.50
21335;DHT22;10826;52.536;13.432;2023-04-03T15:52:26;7.90;37.20
21335;DHT22;10826;52.536;13.432;2023-04-03T15:55:14;8.00;37.20
21335;DHT22;10826;52.536;13.432;2023-04-03T15:58:00;8.10;37.20
21335;DHT22;10826;52.536;13.432;2023-04-03T16:00:47;8.10;37.20
21335;DHT22;10826;52.536;13.432;2023-04-03T16:03:33;8.10;37.00
21335;DHT22;10826;52.536;13.432;2023-04-03T16:06:19;8.10;37.50
21335;DHT22;10826;52.536;13.432;2023-04-03T16:09:06;8.10;37.20
21335;DHT22;10826;52.536;13.432;2023-04-03T16:11:53;8.00;37.10
21335;DHT22;10826;52.536;13.432;2023-04-03T16:14:39;7.90;37.40
21335;DHT22;10826;52.536;13.432;2023-04-03T16:17:27;7.90;37.70
21335;DHT22;10826;52.536;13.432;2023-04-03T16:20:13;7.90;38.20
21335;DHT22;10826;52.536;13.432;2023-04-03T16:23:01;7.90;38.10
21335;DHT22;10826;52.536;13.432;2023-04-03T16:25:47;7.90;37.90
21335;DHT22;10826;52.536;13.432;2023-04-03T16:28:35;7.90;37.90
21335;DHT22;10826;52.536;13.432;2023-04-03T16:31:22;7.80;38.10
21335;DHT22;10826;52.536;13.432;2023-04-03T16:34:09;7.80;38.30
21335;DHT22;10826;52.536;13.432;2023-04-03T16:36:56;7.70;38.30
21335;DHT22;10826;52.536;13.432;2023-04-03T16:39:42;7.70;38.30
21335;DHT22;10826;52.536;13.432;2023-04-03T16:42:28;7.70;38.30
21335;DHT22;10826;52.536;13.432;2023-04-03T16:45:15;7.70;38.30
21335;DHT22;10826;52.536;13.432;2023-04-03T16:48:01;7.70;38.30
21335;DHT22;10826;52.536;13.432;2023-04-03T16:50:47;7.70;38.30
21335;DHT22;10826;52.536;13.432;2023-04-03T16:53:34;7.70;38.90
21335;DHT22;10826;52.536;13.432;2023-04-03T16:56:21;7.70;38.70
21335;DHT22;10826;52.536;13.432;2023-04-03T16:59:07;7.70;38.90
21335;DHT22;10826;52.536;13.432;2023-04-03T17:01:53;7.60;39.00
21335;DHT22;10826;52.536;13.432;2023-04-03T17:04:40;7.60;39.40
21335;DHT22;10826;52.536;13.432;2023-04-03T17:07:26;7.60;39.40
21335;DHT22;10826;52.536;13.432;2023-04-03T17:10:13;7.60;39.30
21335;DHT22;10826;52.536;13.432;2023-04-03T17:12:59;7.50;39.30
21335;DHT22;10826;52.536;13.432;2023-04-03T17:15:45;7.50;39.60
21335;DHT22;10826;52.536;13.432;2023-04-03T17:18:32;7.40;40.20
21335;DHT22;10826;52.536;13.432;2023-04-03T17:21:19;7.40;39.50
21335;DHT22;10826;52.536;13.432;2023-04-03T17:24:08;7.30;39.60
21335;DHT22;10826;52.536;13.432;2023-04-03T17:27:02;7.30;39.50
21335;DHT22;10826;52.536;13.432;2023-04-03T17:29:49;7.20;39.70
21335;DHT22;10826;52.536;13.432;2023-04-03T17:32:35;7.20;39.80
21335;DHT22;10826;52.536;13.432;2023-04-03T17:35:22;7.10;39.70
21335;DHT22;10826;52.536;13.432;2023-04-03T17:38:08;7.00;39.80
21335;DHT22;10826;52.536;13.432;2023-04-03T17:40:58;7.00;40.00
21335;DHT22;10826;52.536;13.432;2023-04-03T17:43:46;6.90;40.30
21335;DHT22;10826;52.536;13.432;2023-04-03T17:46:32;6.80;40.40
21335;DHT22;10826;52.536;13.432;2023-04-03T17:49:22;6.70;40.70
21335;DHT22;10826;52.536;13.432;2023-04-03T17:52:09;6.60;40.50
21335;DHT22;10826;52.536;13.432;2023-04-03T17:54:59;6.60;40.80
21335;DHT22;10826;52.536;13.432;2023-04-03T17:57:50;6.50;41.20
21335;DHT22;10826;52.536;13.432;2023-04-03T18:00:36;6.40;41.20
21335;DHT22;10826;52.536;13.432;2023-04-03T18:03:25;6.40;41.60
21335;DHT22;10826;52.536;13.432;2023-04-03T18:06:16;6.30;41.80
21335;DHT22;10826;52.536;13.432;2023-04-03T18:09:07;6.20;42.10
21335;DHT22;10826;52.536;13.432;2023-04-03T18:11:56;6.10;42.20
21335;DHT22;10826;52.536;13.432;2023-04-03T18:14:45;6.00;42.40
21335;DHT22;10826;52.536;13.432;2023-04-03T18:17:31;5.90;42.70
21335;DHT22;10826;52.536;13.432;2023-04-03T18:20:17;5.90;43.10
21335;DHT22;10826;52.536;13.432;2023-04-03T18:23:03;5.90;43.20
21335;DHT22;10826;52.536;13.432;2023-04-03T18:25:49;5.80;43.70
21335;DHT22;10826;52.536;13.432;2023-04-03T18:28:35;5.80;43.90
21335;DHT22;10826;52.536;13.432;2023-04-03T18:31:22;5.80;44.10
21335;DHT22;10826;52.536;13.432;2023-04-03T18:34:10;5.80;44.20
21335;DHT22;10826;52.536;13.432;2023-04-03T18:36:56;5.80;44.40
21335;DHT22;10826;52.536;13.432;2023-04-03T18:39:42;5.90;44.60
21335;DHT22;10826;52.536;13.432;2023-04-03T18:42:28;5.90;44.50
21335;DHT22;10826;52.536;13.432;2023-04-03T18:45:16;5.90;44.50
21335;DHT22;10826;52.536;13.432;2023-04-03T18:48:06;5.90;44.90
21335;DHT22;10826;52.536;13.432;2023-04-03T18:50:52;5.90;45.00
21335;DHT22;10826;52.536;13.432;2023-04-03T18:53:40;5.90;45.30
21335;DHT22;10826;52.536;13.432;2023-04-03T18:56:26;5.90;45.30